»·PEaware :: AAL316 KLAS-KBOI

AAL316 :: KLAS-KBOI

FLIGHT INFORMATION

Flight Status: Arrived
Operator:
American Airlines
More flights by this operator :: More flights under this callsign
Pilot: Robert A. (6703)
Aircraft: BOEING 737-300
(B733)
More flights by this aircraft type
Origin: KLAS McCarran Intl
United States
Destination: KBOI Boise Air Terminal/Gowen
United States
More flights between these airports :: More routes between these airports
Route: +TRALR9 MLF ELY BROPH SPUUD3
File this flight plan on PilotEdge
Remarks: / L DME MODE C RVSM
Altitude:
(Current/Filed)
35,000ft
Speed:
(Current/Filed)
430kts
Departed: 02-Mar-19 12:36 PM
Arrived: 02-Mar-19 02:16 PM
Distance/Time
Traveled:
452nm/1:40
Distance/Time
To Go:
Arrived

Flight Plot

Page will automatically refresh every two minutes.

Flight plan parsing failed; only flown route is shown


Map Options




Map Legend


Flown Route
Filed Route
Departure Airport
Arrival Airport
Navaid (VOR, NDB)
Fix

Horizontal Profiles

Position Reports

Time Latitude Longitude Heading Altitude Ground
Speed
02-Mar-19 11:59 36.079987 -115.135657 22 2062ft 0kts
02-Mar-19 12:00 36.079987 -115.135657 22 2062ft 0kts
02-Mar-19 12:01 36.079987 -115.135657 22 2062ft 0kts
02-Mar-19 12:02 36.079987 -115.135657 22 2062ft 0kts
02-Mar-19 12:03 36.079987 -115.135657 22 2062ft 0kts
02-Mar-19 12:04 36.079987 -115.135657 22 2062ft 0kts
02-Mar-19 12:05 36.079987 -115.135657 22 2062ft 0kts
02-Mar-19 12:06 36.079987 -115.135657 22 2062ft 0kts
02-Mar-19 12:07 36.079987 -115.135657 22 2062ft 0kts
02-Mar-19 12:08 36.079987 -115.135657 22 2062ft 0kts
02-Mar-19 12:09 36.079987 -115.135657 22 2062ft 0kts
02-Mar-19 12:10 36.080003 -115.135649 22 2062ft 1kts
02-Mar-19 12:11 36.080993 -115.135169 358 2059ft 3kts
02-Mar-19 12:12 36.080906 -115.134110 154 2056ft 0kts
02-Mar-19 12:13 36.080906 -115.134110 154 2056ft 0kts
02-Mar-19 12:14 36.080906 -115.134110 154 2056ft 0kts
02-Mar-19 12:15 36.080906 -115.134110 154 2056ft 0kts
02-Mar-19 12:16 36.080906 -115.134110 154 2056ft 0kts
02-Mar-19 12:17 36.080906 -115.134110 154 2056ft 0kts
02-Mar-19 12:18 36.080906 -115.134110 154 2056ft 0kts
02-Mar-19 12:19 36.080906 -115.134110 154 2056ft 0kts
02-Mar-19 12:20 36.080906 -115.134110 154 2056ft 0kts
02-Mar-19 12:21 36.080906 -115.134110 154 2056ft 0kts
02-Mar-19 12:22 36.080906 -115.134110 154 2056ft 0kts
02-Mar-19 12:23 36.080906 -115.134110 154 2056ft 0kts
02-Mar-19 12:24 36.080906 -115.134110 154 2056ft 0kts
02-Mar-19 12:25 36.079630 -115.133886 206 2057ft 11kts
02-Mar-19 12:26 36.078233 -115.138662 270 2072ft 21kts
02-Mar-19 12:27 36.078372 -115.145295 275 2094ft 15kts
02-Mar-19 12:28 36.078706 -115.151321 272 2114ft 15kts
02-Mar-19 12:29 36.080047 -115.154147 336 2123ft 21kts
02-Mar-19 12:30 36.087232 -115.157986 19 2118ft 17kts
02-Mar-19 12:31 36.094440 -115.153695 25 2086ft 36kts
02-Mar-19 12:32 36.097954 -115.152474 297 2079ft 0kts
02-Mar-19 12:33 36.097954 -115.152474 297 2079ft 0kts
02-Mar-19 12:34 36.097972 -115.152518 297 2079ft 3kts
02-Mar-19 12:35 36.089193 -115.158904 204 2117ft 128kts
02-Mar-19 12:36 36.051496 -115.180759 206 4091ft 165kts
02-Mar-19 12:37 36.010038 -115.212906 237 6367ft 192kts
02-Mar-19 12:38 35.978299 -115.280622 221 7405ft 266kts
02-Mar-19 12:39 35.910426 -115.277803 169 8798ft 269kts
02-Mar-19 12:40 35.864164 -115.206838 92 10669ft 340kts
02-Mar-19 12:41 35.864725 -115.083169 91 12473ft 370kts
02-Mar-19 12:42 35.909463 -114.967317 57 14032ft 385kts
02-Mar-19 12:43 35.960928 -114.850831 62 14046ft 384kts
02-Mar-19 12:44 36.010106 -114.723368 62 15306ft 426kts
02-Mar-19 12:45 36.062419 -114.587917 62 17530ft 445kts
02-Mar-19 12:46 36.117074 -114.446131 62 19577ft 464kts
02-Mar-19 12:47 36.161194 -114.331305 63 20415ft 495kts
02-Mar-19 12:48 36.220888 -114.174899 62 21915ft 514kts
02-Mar-19 12:49 36.283205 -114.014889 62 24049ft 515kts
02-Mar-19 12:50 36.345421 -113.854234 62 26022ft 516kts
02-Mar-19 12:51 36.407697 -113.692604 62 27790ft 519kts
02-Mar-19 12:52 36.509040 -113.588218 356 29066ft 467kts
02-Mar-19 12:53 36.638896 -113.556685 2 30679ft 476kts
02-Mar-19 12:54 36.768129 -113.517736 2 32001ft 477kts
02-Mar-19 12:55 36.897614 -113.478603 1 33228ft 476kts
02-Mar-19 12:56 37.026666 -113.439788 2 34222ft 477kts
02-Mar-19 12:57 37.156266 -113.400441 4 34996ft 475kts
02-Mar-19 12:58 37.285075 -113.361130 4 34960ft 471kts
02-Mar-19 12:59 37.413230 -113.321276 5 34951ft 473kts
02-Mar-19 13:00 37.540848 -113.280156 5 34942ft 473kts
02-Mar-19 13:01 37.668906 -113.238901 5 34939ft 473kts
02-Mar-19 13:02 37.796413 -113.197707 5 34941ft 474kts
02-Mar-19 13:03 37.924368 -113.156187 5 34942ft 474kts
02-Mar-19 13:05 38.054966 -113.113728 6 34914ft 488kts
02-Mar-19 13:06 38.187609 -113.070085 6 34940ft 490kts
02-Mar-19 13:07 38.320201 -113.026868 2 34933ft 487kts
02-Mar-19 13:08 38.403164 -113.057743 299 34922ft 401kts
02-Mar-19 13:09 38.463065 -113.175382 293 34941ft 395kts
02-Mar-19 13:10 38.523379 -113.293399 294 34936ft 394kts
02-Mar-19 13:11 38.579875 -113.404046 293 34937ft 393kts
02-Mar-19 13:12 38.628648 -113.499976 293 34945ft 395kts
02-Mar-19 13:13 38.688610 -113.618634 293 34937ft 395kts
02-Mar-19 13:14 38.748536 -113.737380 293 34938ft 392kts
02-Mar-19 13:15 38.807951 -113.855421 293 34945ft 394kts
02-Mar-19 13:16 38.867259 -113.973626 293 34940ft 392kts
02-Mar-19 13:17 38.926823 -114.092825 292 34934ft 396kts
02-Mar-19 13:18 38.986674 -114.213023 292 34934ft 400kts
02-Mar-19 13:19 39.047356 -114.335347 292 34936ft 405kts
02-Mar-19 13:20 39.107923 -114.457790 292 34914ft 403kts
02-Mar-19 13:21 39.168836 -114.580973 292 34943ft 405kts
02-Mar-19 13:22 39.229098 -114.703956 291 34942ft 403kts
02-Mar-19 13:23 39.290241 -114.825951 303 34919ft 415kts
02-Mar-19 13:23 39.390275 -114.856128 359 34947ft 493kts
02-Mar-19 13:24 39.526602 -114.849947 350 34942ft 485kts
02-Mar-19 13:26 39.685288 -114.851287 350 34942ft 485kts
02-Mar-19 13:27 39.820413 -114.852319 350 34941ft 484kts
02-Mar-19 13:27 39.933549 -114.853168 350 34943ft 484kts
02-Mar-19 13:28 40.068419 -114.854187 350 34945ft 484kts
02-Mar-19 13:30 40.226099 -114.855323 350 34962ft 484kts
02-Mar-19 13:30 40.338642 -114.856182 350 35015ft 484kts
02-Mar-19 13:31 40.473729 -114.857211 350 35003ft 483kts
02-Mar-19 13:32 40.608438 -114.858272 350 34992ft 484kts
02-Mar-19 13:33 40.744025 -114.859294 350 34997ft 484kts
02-Mar-19 13:34 40.878551 -114.860345 350 34997ft 483kts
02-Mar-19 13:35 41.013307 -114.861373 349 35012ft 479kts
02-Mar-19 13:36 41.142462 -114.862260 348 34951ft 447kts
02-Mar-19 13:37 41.268332 -114.863356 348 34989ft 454kts
02-Mar-19 13:38 41.394198 -114.864288 348 34991ft 448kts
02-Mar-19 13:39 41.519660 -114.865309 348 35000ft 451kts
02-Mar-19 13:40 41.645268 -114.866316 348 34988ft 453kts
02-Mar-19 13:41 41.771695 -114.867288 348 34994ft 452kts
02-Mar-19 13:42 41.895406 -114.868285 348 35032ft 450kts
02-Mar-19 13:43 42.021541 -114.869331 348 35051ft 454kts
02-Mar-19 13:44 42.147380 -114.870268 348 35025ft 449kts
02-Mar-19 13:45 42.273802 -114.871327 349 32054ft 461kts
02-Mar-19 13:46 42.402606 -114.872342 351 28596ft 464kts
02-Mar-19 13:47 42.529888 -114.873322 352 25921ft 445kts
02-Mar-19 13:48 42.651166 -114.874330 352 23493ft 425kts
02-Mar-19 13:49 42.752042 -114.918638 307 21603ft 359kts
02-Mar-19 13:50 42.821380 -115.019377 308 20512ft 360kts
02-Mar-19 13:51 42.868967 -115.087897 308 19765ft 360kts
02-Mar-19 13:52 42.931929 -115.179014 309 18352ft 357kts
02-Mar-19 13:53 43.000386 -115.278357 310 18551ft 351kts
02-Mar-19 13:54 43.067726 -115.376352 310 18767ft 354kts
02-Mar-19 13:55 43.132289 -115.470271 310 17062ft 322kts
02-Mar-19 13:56 43.192628 -115.558758 311 14537ft 309kts
02-Mar-19 13:57 43.246020 -115.637198 312 12229ft 301kts
02-Mar-19 13:58 43.303797 -115.716973 315 10494ft 290kts
02-Mar-19 13:59 43.363727 -115.793690 315 8241ft 276kts
02-Mar-19 14:00 43.402462 -115.866416 299 8025ft 264kts
02-Mar-19 14:01 43.394262 -115.961172 261 8041ft 262kts
02-Mar-19 14:02 43.386248 -116.041558 262 8027ft 261kts
02-Mar-19 14:03 43.376696 -116.141456 262 8028ft 261kts
02-Mar-19 14:04 43.367210 -116.241018 262 8028ft 261kts
02-Mar-19 14:05 43.378245 -116.335185 312 7149ft 266kts
02-Mar-19 14:06 43.426249 -116.406958 311 5704ft 241kts
02-Mar-19 14:07 43.468921 -116.472526 311 5036ft 222kts
02-Mar-19 14:08 43.509980 -116.536308 311 5037ft 219kts
02-Mar-19 14:09 43.563665 -116.549766 23 5056ft 223kts
02-Mar-19 14:10 43.620737 -116.514666 25 5039ft 222kts
02-Mar-19 14:11 43.636201 -116.437065 108 5042ft 226kts
02-Mar-19 14:12 43.611607 -116.364064 116 4801ft 183kts
02-Mar-19 14:13 43.591349 -116.305227 115 3835ft 147kts
02-Mar-19 14:14 43.574323 -116.255258 115 3092ft 135kts
02-Mar-19 14:15 43.564052 -116.224740 81 2847ft 18kts
02-Mar-19 14:16 43.565940 -116.224070 4 2847ft 16kts
02-Mar-19 14:17 43.567251 -116.220704 22 2850ft 0kts
02-Mar-19 14:18 43.567251 -116.220704 22 2850ft 0kts
02-Mar-19 14:19 43.567251 -116.220704 22 2850ft 0kts
02-Mar-19 14:20 43.567251 -116.220704 22 2850ft 0kts
02-Mar-19 14:21 43.567251 -116.220704 22 2850ft 0kts
02-Mar-19 14:22 43.567251 -116.220704 22 2850ft 0kts
02-Mar-19 14:23 43.567251 -116.220704 22 2850ft 0kts
02-Mar-19 14:24 43.567251 -116.220704 22 2850ft 0kts
02-Mar-19 14:25 43.567251 -116.220704 22 2850ft 0kts
02-Mar-19 14:26 43.567251 -116.220704 22 2850ft 0kts
02-Mar-19 14:27 43.567251 -116.220704 22 2850ft 0kts
02-Mar-19 14:28 43.567251 -116.220704 22 2850ft 0kts
02-Mar-19 14:29 43.567251 -116.220704 22 2850ft 0kts

Navigation Log

Ident Type
Flight plan parsing failed, navigation log unavailable